sensor_id;sensor_type;location;lat;lon;timestamp;P1;durP1;ratioP1;P2;durP2;ratioP2
52208;SDS011;38507;53.132;6.394;2022-11-15T00:00:49;27.23;;;17.92;;
52208;SDS011;38507;53.132;6.394;2022-11-15T00:03:16;26.48;;;17.40;;
52208;SDS011;38507;53.132;6.394;2022-11-15T00:05:42;29.67;;;17.60;;
52208;SDS011;38507;53.132;6.394;2022-11-15T00:08:08;29.25;;;16.92;;
52208;SDS011;38507;53.132;6.394;2022-11-15T00:10:35;25.63;;;17.65;;
52208;SDS011;38507;53.132;6.394;2022-11-15T00:13:08;24.63;;;17.42;;
52208;SDS011;38507;53.132;6.394;2022-11-15T00:15:39;26.93;;;15.97;;
52208;SDS011;38507;53.132;6.394;2022-11-15T00:18:06;26.02;;;17.05;;
52208;SDS011;38507;53.132;6.394;2022-11-15T00:20:37;24.90;;;17.10;;
52208;SDS011;38507;53.132;6.394;2022-11-15T00:23:03;25.83;;;17.77;;
52208;SDS011;38507;53.132;6.394;2022-11-15T00:25:29;27.23;;;18.00;;
52208;SDS011;38507;53.132;6.394;2022-11-15T00:27:56;26.90;;;17.35;;
52208;SDS011;38507;53.132;6.394;2022-11-15T00:30:22;25.08;;;16.88;;
52208;SDS011;38507;53.132;6.394;2022-11-15T00:32:48;26.35;;;17.35;;
52208;SDS011;38507;53.132;6.394;2022-11-15T00:35:14;25.92;;;17.38;;
52208;SDS011;38507;53.132;6.394;2022-11-15T00:37:40;26.55;;;17.27;;
52208;SDS011;38507;53.132;6.394;2022-11-15T00:40:06;26.95;;;17.65;;
52208;SDS011;38507;53.132;6.394;2022-11-15T00:42:32;24.40;;;17.02;;
52208;SDS011;38507;53.132;6.394;2022-11-15T00:44:58;27.67;;;18.02;;
52208;SDS011;38507;53.132;6.394;2022-11-15T00:47:23;27.25;;;17.42;;
52208;SDS011;38507;53.132;6.394;2022-11-15T00:49:49;25.80;;;17.60;;
52208;SDS011;38507;53.132;6.394;2022-11-15T00:52:14;25.17;;;16.63;;
52208;SDS011;38507;53.132;6.394;2022-11-15T00:54:40;26.70;;;16.70;;
52208;SDS011;38507;53.132;6.394;2022-11-15T00:57:05;26.55;;;17.70;;
52208;SDS011;38507;53.132;6.394;2022-11-15T00:59:31;27.42;;;18.20;;
52208;SDS011;38507;53.132;6.394;2022-11-15T01:01:57;26.70;;;17.58;;
52208;SDS011;38507;53.132;6.394;2022-11-15T01:04:22;25.95;;;16.85;;
52208;SDS011;38507;53.132;6.394;2022-11-15T01:06:48;24.63;;;16.63;;
52208;SDS011;38507;53.132;6.394;2022-11-15T01:09:13;24.77;;;16.75;;
52208;SDS011;38507;53.132;6.394;2022-11-15T01:11:39;31.35;;;18.13;;
52208;SDS011;38507;53.132;6.394;2022-11-15T01:14:05;26.33;;;18.42;;
52208;SDS011;38507;53.132;6.394;2022-11-15T01:16:30;28.55;;;18.10;;
52208;SDS011;38507;53.132;6.394;2022-11-15T01:18:57;31.35;;;20.48;;
52208;SDS011;38507;53.132;6.394;2022-11-15T01:21:23;30.90;;;20.35;;
52208;SDS011;38507;53.132;6.394;2022-11-15T01:23:52;28.60;;;19.75;;
52208;SDS011;38507;53.132;6.394;2022-11-15T01:26:19;27.70;;;19.27;;
52208;SDS011;38507;53.132;6.394;2022-11-15T01:28:45;28.58;;;20.20;;
52208;SDS011;38507;53.132;6.394;2022-11-15T01:31:15;31.90;;;20.50;;
52208;SDS011;38507;53.132;6.394;2022-11-15T01:33:42;29.60;;;20.38;;
52208;SDS011;38507;53.132;6.394;2022-11-15T01:36:10;30.05;;;20.95;;
52208;SDS011;38507;53.132;6.394;2022-11-15T01:38:37;28.83;;;19.48;;
52208;SDS011;38507;53.132;6.394;2022-11-15T01:41:03;31.88;;;20.83;;
52208;SDS011;38507;53.132;6.394;2022-11-15T01:43:33;31.77;;;20.58;;
52208;SDS011;38507;53.132;6.394;2022-11-15T01:46:02;32.20;;;21.45;;
52208;SDS011;38507;53.132;6.394;2022-11-15T01:48:32;31.92;;;20.17;;
52208;SDS011;38507;53.132;6.394;2022-11-15T01:50:59;30.52;;;20.38;;
52208;SDS011;38507;53.132;6.394;2022-11-15T01:53:30;31.25;;;19.42;;
52208;SDS011;38507;53.132;6.394;2022-11-15T01:55:58;30.92;;;20.50;;
52208;SDS011;38507;53.132;6.394;2022-11-15T01:58:27;30.45;;;19.52;;
52208;SDS011;38507;53.132;6.394;2022-11-15T02:00:53;34.35;;;19.65;;
52208;SDS011;38507;53.132;6.394;2022-11-15T02:03:18;29.00;;;19.35;;
52208;SDS011;38507;53.132;6.394;2022-11-15T02:05:47;31.88;;;20.63;;
52208;SDS011;38507;53.132;6.394;2022-11-15T02:08:13;30.67;;;20.35;;
52208;SDS011;38507;53.132;6.394;2022-11-15T02:10:45;29.10;;;19.35;;
52208;SDS011;38507;53.132;6.394;2022-11-15T02:13:12;27.58;;;17.80;;
52208;SDS011;38507;53.132;6.394;2022-11-15T02:15:54;31.92;;;18.85;;
52208;SDS011;38507;53.132;6.394;2022-11-15T02:18:38;31.02;;;19.02;;
52208;SDS011;38507;53.132;6.394;2022-11-15T02:35:12;31.50;;;19.30;;
52208;SDS011;38507;53.132;6.394;2022-11-15T02:37:51;35.15;;;19.52;;
52208;SDS011;38507;53.132;6.394;2022-11-15T02:40:25;30.15;;;17.80;;
52208;SDS011;38507;53.132;6.394;2022-11-15T02:43:09;31.55;;;18.88;;
52208;SDS011;38507;53.132;6.394;2022-11-15T02:46:01;34.00;;;19.70;;
52208;SDS011;38507;53.132;6.394;2022-11-15T02:48:35;32.40;;;19.80;;
52208;SDS011;38507;53.132;6.394;2022-11-15T02:51:01;32.73;;;19.50;;
52208;SDS011;38507;53.132;6.394;2022-11-15T02:53:27;31.83;;;18.50;;
52208;SDS011;38507;53.132;6.394;2022-11-15T02:55:53;35.20;;;20.00;;
52208;SDS011;38507;53.132;6.394;2022-11-15T03:04:00;30.45;;;19.20;;
52208;SDS011;38507;53.132;6.394;2022-11-15T03:06:53;37.08;;;19.98;;
52208;SDS011;38507;53.132;6.394;2022-11-15T03:11:59;37.42;;;21.17;;
52208;SDS011;38507;53.132;6.394;2022-11-15T03:14:37;33.95;;;20.23;;
52208;SDS011;38507;53.132;6.394;2022-11-15T03:17:27;36.38;;;19.38;;
52208;SDS011;38507;53.132;6.394;2022-11-15T03:20:04;34.08;;;19.88;;
52208;SDS011;38507;53.132;6.394;2022-11-15T03:22:35;33.72;;;18.83;;
52208;SDS011;38507;53.132;6.394;2022-11-15T03:25:06;33.65;;;19.10;;
52208;SDS011;38507;53.132;6.394;2022-11-15T03:27:38;36.53;;;18.73;;
52208;SDS011;38507;53.132;6.394;2022-11-15T03:30:08;34.20;;;19.20;;
52208;SDS011;38507;53.132;6.394;2022-11-15T03:32:35;34.67;;;20.23;;
52208;SDS011;38507;53.132;6.394;2022-11-15T03:37:35;38.45;;;19.63;;
52208;SDS011;38507;53.132;6.394;2022-11-15T03:40:05;40.22;;;21.15;;
52208;SDS011;38507;53.132;6.394;2022-11-15T03:42:36;46.15;;;21.63;;
52208;SDS011;38507;53.132;6.394;2022-11-15T03:45:08;43.55;;;20.83;;
52208;SDS011;38507;53.132;6.394;2022-11-15T03:47:58;41.15;;;20.25;;
52208;SDS011;38507;53.132;6.394;2022-11-15T03:50:32;40.70;;;20.60;;
52208;SDS011;38507;53.132;6.394;2022-11-15T03:52:58;40.33;;;20.30;;
52208;SDS011;38507;53.132;6.394;2022-11-15T03:55:24;43.75;;;21.10;;
52208;SDS011;38507;53.132;6.394;2022-11-15T03:57:51;36.83;;;20.73;;
52208;SDS011;38507;53.132;6.394;2022-11-15T04:00:19;42.83;;;21.10;;
52208;SDS011;38507;53.132;6.394;2022-11-15T04:02:45;42.30;;;21.75;;
52208;SDS011;38507;53.132;6.394;2022-11-15T04:05:11;38.15;;;20.02;;
52208;SDS011;38507;53.132;6.394;2022-11-15T04:07:36;42.58;;;21.35;;
52208;SDS011;38507;53.132;6.394;2022-11-15T04:10:02;37.35;;;19.73;;
52208;SDS011;38507;53.132;6.394;2022-11-15T04:12:29;42.20;;;20.30;;
52208;SDS011;38507;53.132;6.394;2022-11-15T04:15:17;42.65;;;20.20;;
52208;SDS011;38507;53.132;6.394;2022-11-15T04:17:43;43.17;;;21.67;;
52208;SDS011;38507;53.132;6.394;2022-11-15T04:20:21;45.28;;;21.17;;
52208;SDS011;38507;53.132;6.394;2022-11-15T04:23:07;40.83;;;21.20;;
52208;SDS011;38507;53.132;6.394;2022-11-15T04:25:55;43.05;;;21.77;;
52208;SDS011;38507;53.132;6.394;2022-11-15T04:28:23;42.00;;;21.48;;
52208;SDS011;38507;53.132;6.394;2022-11-15T04:30:48;40.95;;;19.90;;
52208;SDS011;38507;53.132;6.394;2022-11-15T04:33:14;43.75;;;19.95;;
52208;SDS011;38507;53.132;6.394;2022-11-15T04:35:40;44.47;;;21.63;;
52208;SDS011;38507;53.132;6.394;2022-11-15T04:38:08;41.65;;;22.02;;
52208;SDS011;38507;53.132;6.394;2022-11-15T04:40:35;43.58;;;21.67;;
52208;SDS011;38507;53.132;6.394;2022-11-15T04:43:01;41.58;;;19.75;;
52208;SDS011;38507;53.132;6.394;2022-11-15T04:45:26;43.47;;;21.92;;
52208;SDS011;38507;53.132;6.394;2022-11-15T04:47:52;44.15;;;21.70;;
52208;SDS011;38507;53.132;6.394;2022-11-15T04:50:18;47.42;;;21.48;;
52208;SDS011;38507;53.132;6.394;2022-11-15T04:52:50;40.70;;;20.73;;
52208;SDS011;38507;53.132;6.394;2022-11-15T04:55:18;47.15;;;22.33;;
52208;SDS011;38507;53.132;6.394;2022-11-15T04:57:44;48.90;;;21.98;;
52208;SDS011;38507;53.132;6.394;2022-11-15T05:00:11;50.10;;;22.48;;
52208;SDS011;38507;53.132;6.394;2022-11-15T05:02:38;47.53;;;23.02;;
52208;SDS011;38507;53.132;6.394;2022-11-15T05:05:23;46.10;;;22.65;;
52208;SDS011;38507;53.132;6.394;2022-11-15T05:07:50;49.67;;;23.40;;
52208;SDS011;38507;53.132;6.394;2022-11-15T05:10:15;51.65;;;23.52;;
52208;SDS011;38507;53.132;6.394;2022-11-15T05:12:41;57.17;;;24.02;;
52208;SDS011;38507;53.132;6.394;2022-11-15T05:15:07;57.00;;;24.35;;
52208;SDS011;38507;53.132;6.394;2022-11-15T05:17:33;51.75;;;23.55;;
52208;SDS011;38507;53.132;6.394;2022-11-15T05:19:59;58.35;;;24.50;;
52208;SDS011;38507;53.132;6.394;2022-11-15T05:22:25;63.03;;;26.30;;
52208;SDS011;38507;53.132;6.394;2022-11-15T05:24:50;62.65;;;25.85;;
52208;SDS011;38507;53.132;6.394;2022-11-15T05:27:16;58.35;;;26.75;;
52208;SDS011;38507;53.132;6.394;2022-11-15T05:29:42;61.88;;;26.42;;
52208;SDS011;38507;53.132;6.394;2022-11-15T05:32:08;63.60;;;28.13;;
52208;SDS011;38507;53.132;6.394;2022-11-15T05:34:35;65.53;;;28.42;;
52208;SDS011;38507;53.132;6.394;2022-11-15T05:37:00;76.18;;;28.98;;
52208;SDS011;38507;53.132;6.394;2022-11-15T05:39:26;56.28;;;27.85;;
52208;SDS011;38507;53.132;6.394;2022-11-15T05:41:53;61.80;;;28.65;;
52208;SDS011;38507;53.132;6.394;2022-11-15T05:44:28;68.50;;;27.08;;
52208;SDS011;38507;53.132;6.394;2022-11-15T05:46:53;64.53;;;29.33;;
52208;SDS011;38507;53.132;6.394;2022-11-15T05:49:22;61.58;;;28.25;;
52208;SDS011;38507;53.132;6.394;2022-11-15T05:51:53;61.72;;;27.40;;
52208;SDS011;38507;53.132;6.394;2022-11-15T05:54:19;63.70;;;28.85;;
52208;SDS011;38507;53.132;6.394;2022-11-15T05:56:47;76.45;;;30.95;;
52208;SDS011;38507;53.132;6.394;2022-11-15T05:59:14;86.50;;;32.53;;
52208;SDS011;38507;53.132;6.394;2022-11-15T06:01:40;77.88;;;32.00;;
52208;SDS011;38507;53.132;6.394;2022-11-15T06:04:06;78.68;;;31.83;;
52208;SDS011;38507;53.132;6.394;2022-11-15T06:06:32;79.63;;;32.78;;
52208;SDS011;38507;53.132;6.394;2022-11-15T06:08:57;74.90;;;31.45;;
52208;SDS011;38507;53.132;6.394;2022-11-15T06:11:23;67.75;;;30.25;;
52208;SDS011;38507;53.132;6.394;2022-11-15T06:13:48;74.00;;;30.73;;
52208;SDS011;38507;53.132;6.394;2022-11-15T06:16:14;82.45;;;31.80;;
52208;SDS011;38507;53.132;6.394;2022-11-15T06:18:39;70.97;;;31.92;;
52208;SDS011;38507;53.132;6.394;2022-11-15T06:21:05;84.43;;;32.65;;
52208;SDS011;38507;53.132;6.394;2022-11-15T06:23:32;73.40;;;31.73;;
52208;SDS011;38507;53.132;6.394;2022-11-15T06:25:59;78.55;;;31.98;;
52208;SDS011;38507;53.132;6.394;2022-11-15T06:28:28;68.15;;;30.55;;
52208;SDS011;38507;53.132;6.394;2022-11-15T06:30:54;76.05;;;32.42;;
52208;SDS011;38507;53.132;6.394;2022-11-15T06:33:20;63.13;;;31.23;;
52208;SDS011;38507;53.132;6.394;2022-11-15T06:35:45;75.10;;;33.97;;
52208;SDS011;38507;53.132;6.394;2022-11-15T06:38:11;71.05;;;31.63;;
52208;SDS011;38507;53.132;6.394;2022-11-15T06:40:39;72.25;;;32.47;;
52208;SDS011;38507;53.132;6.394;2022-11-15T06:43:05;87.60;;;34.05;;
52208;SDS011;38507;53.132;6.394;2022-11-15T06:45:31;68.32;;;31.20;;
52208;SDS011;38507;53.132;6.394;2022-11-15T06:47:57;73.75;;;31.13;;
52208;SDS011;38507;53.132;6.394;2022-11-15T06:50:23;71.90;;;31.75;;
52208;SDS011;38507;53.132;6.394;2022-11-15T06:52:49;68.75;;;31.02;;
52208;SDS011;38507;53.132;6.394;2022-11-15T06:55:15;71.95;;;30.70;;
52208;SDS011;38507;53.132;6.394;2022-11-15T06:57:47;70.38;;;32.35;;
52208;SDS011;38507;53.132;6.394;2022-11-15T07:00:14;58.47;;;29.88;;
52208;SDS011;38507;53.132;6.394;2022-11-15T07:02:40;65.50;;;29.90;;
52208;SDS011;38507;53.132;6.394;2022-11-15T07:05:06;75.22;;;32.63;;
52208;SDS011;38507;53.132;6.394;2022-11-15T07:07:32;67.80;;;30.20;;
52208;SDS011;38507;53.132;6.394;2022-11-15T07:09:57;58.70;;;28.17;;
52208;SDS011;38507;53.132;6.394;2022-11-15T07:12:23;71.47;;;31.45;;
52208;SDS011;38507;53.132;6.394;2022-11-15T07:14:48;73.07;;;31.50;;
52208;SDS011;38507;53.132;6.394;2022-11-15T07:17:14;64.13;;;29.83;;
52208;SDS011;38507;53.132;6.394;2022-11-15T07:19:39;62.42;;;29.98;;
52208;SDS011;38507;53.132;6.394;2022-11-15T07:22:05;79.38;;;32.85;;
52208;SDS011;38507;53.132;6.394;2022-11-15T07:24:31;68.88;;;31.13;;
52208;SDS011;38507;53.132;6.394;2022-11-15T07:26:56;66.28;;;31.33;;
52208;SDS011;38507;53.132;6.394;2022-11-15T07:29:22;76.25;;;33.45;;
52208;SDS011;38507;53.132;6.394;2022-11-15T07:31:48;68.90;;;30.08;;
52208;SDS011;38507;53.132;6.394;2022-11-15T07:34:15;60.30;;;30.75;;
52208;SDS011;38507;53.132;6.394;2022-11-15T07:36:41;62.50;;;30.20;;
52208;SDS011;38507;53.132;6.394;2022-11-15T07:39:06;65.90;;;30.63;;
52208;SDS011;38507;53.132;6.394;2022-11-15T07:41:32;60.13;;;30.63;;
52208;SDS011;38507;53.132;6.394;2022-11-15T07:43:58;58.95;;;28.27;;
52208;SDS011;38507;53.132;6.394;2022-11-15T07:46:24;62.55;;;29.98;;
52208;SDS011;38507;53.132;6.394;2022-11-15T07:48:49;62.13;;;30.55;;
52208;SDS011;38507;53.132;6.394;2022-11-15T07:51:16;65.95;;;30.20;;
52208;SDS011;38507;53.132;6.394;2022-11-15T07:53:42;55.00;;;29.90;;
52208;SDS011;38507;53.132;6.394;2022-11-15T07:56:08;58.63;;;28.80;;
52208;SDS011;38507;53.132;6.394;2022-11-15T07:58:34;54.53;;;27.55;;
52208;SDS011;38507;53.132;6.394;2022-11-15T08:01:03;51.97;;;28.73;;
52208;SDS011;38507;53.132;6.394;2022-11-15T08:03:30;61.35;;;29.27;;
52208;SDS011;38507;53.132;6.394;2022-11-15T08:05:56;53.38;;;28.20;;
52208;SDS011;38507;53.132;6.394;2022-11-15T08:08:22;49.72;;;27.83;;
52208;SDS011;38507;53.132;6.394;2022-11-15T08:10:47;53.38;;;27.95;;
52208;SDS011;38507;53.132;6.394;2022-11-15T08:13:13;53.22;;;27.50;;
52208;SDS011;38507;53.132;6.394;2022-11-15T08:15:39;55.80;;;27.40;;
52208;SDS011;38507;53.132;6.394;2022-11-15T08:18:10;56.55;;;28.83;;
52208;SDS011;38507;53.132;6.394;2022-11-15T08:20:38;54.28;;;26.98;;
52208;SDS011;38507;53.132;6.394;2022-11-15T08:23:05;52.65;;;27.17;;
52208;SDS011;38507;53.132;6.394;2022-11-15T08:25:31;56.10;;;26.58;;
52208;SDS011;38507;53.132;6.394;2022-11-15T08:28:00;47.30;;;27.67;;
52208;SDS011;38507;53.132;6.394;2022-11-15T08:30:27;49.63;;;27.17;;
52208;SDS011;38507;53.132;6.394;2022-11-15T08:32:53;50.80;;;27.40;;
52208;SDS011;38507;53.132;6.394;2022-11-15T08:35:21;46.53;;;26.48;;
52208;SDS011;38507;53.132;6.394;2022-11-15T08:37:46;48.17;;;25.77;;
52208;SDS011;38507;53.132;6.394;2022-11-15T08:40:12;47.80;;;27.02;;
52208;SDS011;38507;53.132;6.394;2022-11-15T08:42:39;40.42;;;25.17;;
52208;SDS011;38507;53.132;6.394;2022-11-15T08:45:04;47.30;;;25.85;;
52208;SDS011;38507;53.132;6.394;2022-11-15T08:47:31;41.67;;;23.98;;
52208;SDS011;38507;53.132;6.394;2022-11-15T08:49:57;41.63;;;24.98;;
52208;SDS011;38507;53.132;6.394;2022-11-15T08:52:22;45.60;;;25.80;;
52208;SDS011;38507;53.132;6.394;2022-11-15T08:54:48;40.30;;;24.65;;
52208;SDS011;38507;53.132;6.394;2022-11-15T08:57:14;36.10;;;23.20;;
52208;SDS011;38507;53.132;6.394;2022-11-15T08:59:39;44.15;;;25.35;;
52208;SDS011;38507;53.132;6.394;2022-11-15T09:02:05;38.95;;;22.98;;
52208;SDS011;38507;53.132;6.394;2022-11-15T09:04:31;36.38;;;22.67;;
52208;SDS011;38507;53.132;6.394;2022-11-15T09:06:57;38.38;;;22.58;;
52208;SDS011;38507;53.132;6.394;2022-11-15T09:09:23;38.28;;;23.35;;
52208;SDS011;38507;53.132;6.394;2022-11-15T09:11:48;33.53;;;22.95;;
52208;SDS011;38507;53.132;6.394;2022-11-15T09:14:15;42.42;;;23.02;;
52208;SDS011;38507;53.132;6.394;2022-11-15T09:16:41;39.88;;;23.25;;
52208;SDS011;38507;53.132;6.394;2022-11-15T09:19:07;38.40;;;22.63;;
52208;SDS011;38507;53.132;6.394;2022-11-15T09:21:32;34.00;;;22.13;;
52208;SDS011;38507;53.132;6.394;2022-11-15T09:23:58;37.50;;;22.15;;
52208;SDS011;38507;53.132;6.394;2022-11-15T09:26:24;30.77;;;20.42;;
52208;SDS011;38507;53.132;6.394;2022-11-15T09:28:50;33.67;;;21.92;;
52208;SDS011;38507;53.132;6.394;2022-11-15T09:31:15;33.63;;;21.13;;
52208;SDS011;38507;53.132;6.394;2022-11-15T09:33:44;33.75;;;20.85;;
52208;SDS011;38507;53.132;6.394;2022-11-15T09:36:10;34.67;;;20.80;;
52208;SDS011;38507;53.132;6.394;2022-11-15T09:38:36;33.08;;;20.98;;
52208;SDS011;38507;53.132;6.394;2022-11-15T09:41:09;35.40;;;19.60;;
52208;SDS011;38507;53.132;6.394;2022-11-15T09:43:42;29.55;;;18.48;;
52208;SDS011;38507;53.132;6.394;2022-11-15T09:49:09;32.58;;;20.02;;
52208;SDS011;38507;53.132;6.394;2022-11-15T09:51:43;37.55;;;19.45;;
52208;SDS011;38507;53.132;6.394;2022-11-15T09:54:36;28.40;;;19.55;;
52208;SDS011;38507;53.132;6.394;2022-11-15T09:57:10;33.72;;;18.92;;
52208;SDS011;38507;53.132;6.394;2022-11-15T10:05:00;28.90;;;18.40;;
52208;SDS011;38507;53.132;6.394;2022-11-15T10:12:22;25.50;;;17.75;;
52208;SDS011;38507;53.132;6.394;2022-11-15T10:14:48;27.58;;;17.67;;
52208;SDS011;38507;53.132;6.394;2022-11-15T10:22:45;28.80;;;17.48;;
52208;SDS011;38507;53.132;6.394;2022-11-15T10:25:16;24.05;;;16.85;;
52208;SDS011;38507;53.132;6.394;2022-11-15T10:27:47;27.48;;;18.15;;
52208;SDS011;38507;53.132;6.394;2022-11-15T10:30:18;28.67;;;18.13;;
52208;SDS011;38507;53.132;6.394;2022-11-15T10:32:45;29.13;;;17.33;;
52208;SDS011;38507;53.132;6.394;2022-11-15T10:35:17;24.55;;;16.25;;
52208;SDS011;38507;53.132;6.394;2022-11-15T10:37:47;29.15;;;17.02;;
52208;SDS011;38507;53.132;6.394;2022-11-15T10:40:18;30.35;;;17.63;;
52208;SDS011;38507;53.132;6.394;2022-11-15T10:42:44;32.63;;;16.92;;
52208;SDS011;38507;53.132;6.394;2022-11-15T10:45:23;27.40;;;16.20;;
52208;SDS011;38507;53.132;6.394;2022-11-15T10:47:48;23.67;;;15.82;;
52208;SDS011;38507;53.132;6.394;2022-11-15T10:50:30;24.17;;;16.02;;
52208;SDS011;38507;53.132;6.394;2022-11-15T10:52:57;24.08;;;14.90;;
52208;SDS011;38507;53.132;6.394;2022-11-15T10:55:26;27.73;;;14.50;;
52208;SDS011;38507;53.132;6.394;2022-11-15T10:57:56;21.08;;;14.40;;
52208;SDS011;38507;53.132;6.394;2022-11-15T11:00:30;20.50;;;13.80;;
52208;SDS011;38507;53.132;6.394;2022-11-15T11:03:00;19.52;;;13.70;;
52208;SDS011;38507;53.132;6.394;2022-11-15T11:05:30;17.70;;;12.35;;
52208;SDS011;38507;53.132;6.394;2022-11-15T11:10:42;21.88;;;11.80;;
52208;SDS011;38507;53.132;6.394;2022-11-15T11:13:28;19.77;;;11.77;;
52208;SDS011;38507;53.132;6.394;2022-11-15T11:18:46;17.85;;;11.02;;
52208;SDS011;38507;53.132;6.394;2022-11-15T11:22:14;20.65;;;11.02;;
52208;SDS011;38507;53.132;6.394;2022-11-15T11:35:14;16.35;;;8.32;;
52208;SDS011;38507;53.132;6.394;2022-11-15T11:37:50;15.05;;;8.07;;
52208;SDS011;38507;53.132;6.394;2022-11-15T11:48:46;11.40;;;4.65;;
52208;SDS011;38507;53.132;6.394;2022-11-15T11:56:50;12.52;;;5.10;;
52208;SDS011;38507;53.132;6.394;2022-11-15T12:01:42;9.70;;;3.63;;
52208;SDS011;38507;53.132;6.394;2022-11-15T12:04:12;8.80;;;3.53;;
52208;SDS011;38507;53.132;6.394;2022-11-15T12:06:45;8.98;;;3.00;;
52208;SDS011;38507;53.132;6.394;2022-11-15T12:09:23;7.95;;;3.13;;
52208;SDS011;38507;53.132;6.394;2022-11-15T12:15:15;6.85;;;2.70;;
52208;SDS011;38507;53.132;6.394;2022-11-15T12:17:44;5.30;;;2.25;;
52208;SDS011;38507;53.132;6.394;2022-11-15T12:20:15;7.75;;;2.00;;
52208;SDS011;38507;53.132;6.394;2022-11-15T12:25:23;4.75;;;1.90;;
52208;SDS011;38507;53.132;6.394;2022-11-15T12:31:01;6.15;;;1.98;;
52208;SDS011;38507;53.132;6.394;2022-11-15T12:36:09;7.53;;;2.35;;
52208;SDS011;38507;53.132;6.394;2022-11-15T12:41:25;7.15;;;2.42;;
52208;SDS011;38507;53.132;6.394;2022-11-15T12:43:52;5.85;;;3.08;;
52208;SDS011;38507;53.132;6.394;2022-11-15T12:46:23;10.77;;;2.65;;
52208;SDS011;38507;53.132;6.394;2022-11-15T12:51:21;8.77;;;2.80;;
52208;SDS011;38507;53.132;6.394;2022-11-15T13:02:31;4.93;;;2.45;;
52208;SDS011;38507;53.132;6.394;2022-11-15T13:17:50;4.93;;;2.60;;
52208;SDS011;38507;53.132;6.394;2022-11-15T13:20:25;8.57;;;2.28;;
52208;SDS011;38507;53.132;6.394;2022-11-15T13:22:58;5.38;;;2.22;;
52208;SDS011;38507;53.132;6.394;2022-11-15T13:28:37;5.90;;;2.38;;
52208;SDS011;38507;53.132;6.394;2022-11-15T13:31:23;8.27;;;2.15;;
52208;SDS011;38507;53.132;6.394;2022-11-15T13:33:51;6.45;;;2.00;;
52208;SDS011;38507;53.132;6.394;2022-11-15T13:36:22;8.20;;;2.20;;
52208;SDS011;38507;53.132;6.394;2022-11-15T13:39:00;6.30;;;2.10;;
52208;SDS011;38507;53.132;6.394;2022-11-15T13:41:50;6.60;;;1.80;;
52208;SDS011;38507;53.132;6.394;2022-11-15T13:44:24;9.88;;;2.47;;
52208;SDS011;38507;53.132;6.394;2022-11-15T13:47:09;6.18;;;2.80;;
52208;SDS011;38507;53.132;6.394;2022-11-15T13:49:39;5.90;;;2.40;;
52208;SDS011;38507;53.132;6.394;2022-11-15T13:52:06;6.00;;;2.25;;
52208;SDS011;38507;53.132;6.394;2022-11-15T13:57:27;7.95;;;1.95;;
52208;SDS011;38507;53.132;6.394;2022-11-15T14:02:50;6.25;;;1.90;;
52208;SDS011;38507;53.132;6.394;2022-11-15T14:05:18;3.78;;;1.60;;
52208;SDS011;38507;53.132;6.394;2022-11-15T14:13:01;5.57;;;1.75;;
52208;SDS011;38507;53.132;6.394;2022-11-15T14:15:33;6.78;;;2.00;;
52208;SDS011;38507;53.132;6.394;2022-11-15T14:18:00;6.63;;;1.67;;
52208;SDS011;38507;53.132;6.394;2022-11-15T14:20:27;5.07;;;1.42;;
52208;SDS011;38507;53.132;6.394;2022-11-15T14:25:53;4.88;;;1.88;;
52208;SDS011;38507;53.132;6.394;2022-11-15T14:30:48;4.70;;;1.50;;
52208;SDS011;38507;53.132;6.394;2022-11-15T14:33:20;5.60;;;1.67;;
52208;SDS011;38507;53.132;6.394;2022-11-15T14:38:16;3.42;;;1.40;;
52208;SDS011;38507;53.132;6.394;2022-11-15T14:40:42;8.50;;;1.75;;
52208;SDS011;38507;53.132;6.394;2022-11-15T14:43:09;4.20;;;1.10;;
52208;SDS011;38507;53.132;6.394;2022-11-15T14:45:36;4.97;;;1.20;;
52208;SDS011;38507;53.132;6.394;2022-11-15T14:48:03;2.47;;;1.20;;
52208;SDS011;38507;53.132;6.394;2022-11-15T14:50:28;3.60;;;1.38;;
52208;SDS011;38507;53.132;6.394;2022-11-15T14:52:54;5.38;;;1.40;;
52208;SDS011;38507;53.132;6.394;2022-11-15T14:55:25;4.82;;;1.50;;
52208;SDS011;38507;53.132;6.394;2022-11-15T14:58:04;3.42;;;1.40;;
52208;SDS011;38507;53.132;6.394;2022-11-15T15:00:33;6.35;;;1.10;;
52208;SDS011;38507;53.132;6.394;2022-11-15T15:02:59;7.15;;;1.40;;
52208;SDS011;38507;53.132;6.394;2022-11-15T15:05:33;4.20;;;1.17;;
52208;SDS011;38507;53.132;6.394;2022-11-15T15:08:03;2.92;;;1.10;;
52208;SDS011;38507;53.132;6.394;2022-11-15T15:10:31;7.15;;;1.00;;
52208;SDS011;38507;53.132;6.394;2022-11-15T15:12:58;3.40;;;1.30;;
52208;SDS011;38507;53.132;6.394;2022-11-15T15:15:26;1.88;;;1.23;;
52208;SDS011;38507;53.132;6.394;2022-11-15T15:17:59;4.03;;;1.20;;
52208;SDS011;38507;53.132;6.394;2022-11-15T15:20:25;5.35;;;1.20;;
52208;SDS011;38507;53.132;6.394;2022-11-15T15:22:51;4.10;;;1.15;;
52208;SDS011;38507;53.132;6.394;2022-11-15T15:27:47;5.32;;;1.10;;
52208;SDS011;38507;53.132;6.394;2022-11-15T15:30:13;5.90;;;1.50;;
52208;SDS011;38507;53.132;6.394;2022-11-15T15:32:38;5.13;;;1.23;;
52208;SDS011;38507;53.132;6.394;2022-11-15T15:35:04;4.03;;;1.23;;
52208;SDS011;38507;53.132;6.394;2022-11-15T15:37:30;6.05;;;1.48;;
52208;SDS011;38507;53.132;6.394;2022-11-15T15:39:58;3.58;;;1.60;;
52208;SDS011;38507;53.132;6.394;2022-11-15T15:42:24;3.35;;;1.58;;
52208;SDS011;38507;53.132;6.394;2022-11-15T15:44:50;5.18;;;1.77;;
52208;SDS011;38507;53.132;6.394;2022-11-15T15:47:19;4.85;;;1.92;;
52208;SDS011;38507;53.132;6.394;2022-11-15T15:49:47;5.53;;;2.33;;
52208;SDS011;38507;53.132;6.394;2022-11-15T15:52:13;6.80;;;2.30;;
52208;SDS011;38507;53.132;6.394;2022-11-15T15:54:39;5.30;;;2.55;;
52208;SDS011;38507;53.132;6.394;2022-11-15T15:57:06;6.43;;;2.30;;
52208;SDS011;38507;53.132;6.394;2022-11-15T15:59:32;7.00;;;2.80;;
52208;SDS011;38507;53.132;6.394;2022-11-15T16:01:58;4.85;;;2.42;;
52208;SDS011;38507;53.132;6.394;2022-11-15T16:04:23;3.78;;;2.38;;
52208;SDS011;38507;53.132;6.394;2022-11-15T16:06:49;4.97;;;2.70;;
52208;SDS011;38507;53.132;6.394;2022-11-15T16:09:18;5.50;;;2.92;;
52208;SDS011;38507;53.132;6.394;2022-11-15T16:12:04;6.32;;;3.10;;
52208;SDS011;38507;53.132;6.394;2022-11-15T16:14:30;4.90;;;2.88;;
52208;SDS011;38507;53.132;6.394;2022-11-15T16:16:57;7.25;;;3.00;;
52208;SDS011;38507;53.132;6.394;2022-11-15T16:19:22;7.53;;;3.20;;
52208;SDS011;38507;53.132;6.394;2022-11-15T16:21:49;6.57;;;3.42;;
52208;SDS011;38507;53.132;6.394;2022-11-15T16:24:17;6.32;;;3.22;;
52208;SDS011;38507;53.132;6.394;2022-11-15T16:26:43;5.35;;;3.30;;
52208;SDS011;38507;53.132;6.394;2022-11-15T16:29:09;5.57;;;3.90;;
52208;SDS011;38507;53.132;6.394;2022-11-15T16:31:35;5.45;;;3.72;;
52208;SDS011;38507;53.132;6.394;2022-11-15T16:34:01;9.02;;;4.40;;
52208;SDS011;38507;53.132;6.394;2022-11-15T16:36:27;7.70;;;4.00;;
52208;SDS011;38507;53.132;6.394;2022-11-15T16:38:56;6.35;;;4.00;;
52208;SDS011;38507;53.132;6.394;2022-11-15T16:41:22;10.00;;;5.20;;
52208;SDS011;38507;53.132;6.394;2022-11-15T16:43:47;10.55;;;6.93;;
52208;SDS011;38507;53.132;6.394;2022-11-15T16:46:20;8.68;;;6.50;;
52208;SDS011;38507;53.132;6.394;2022-11-15T16:48:48;9.52;;;5.15;;
52208;SDS011;38507;53.132;6.394;2022-11-15T16:51:14;5.63;;;3.85;;
52208;SDS011;38507;53.132;6.394;2022-11-15T16:53:40;7.90;;;3.45;;
52208;SDS011;38507;53.132;6.394;2022-11-15T16:58:51;7.22;;;4.57;;